aviador You're here:

KTBN Decoded Metar

FORT LEONARDWOOD in MO, USA
Report Time2017-08-22 08:56:00
UTC Time2017-08-22 09:12:56
Flight Rules vfr VFR
Wind210° at 06 kt
W.Decomp.*RWY 14: 2.3 kt HW 5.5 kt RCW
W.Rank210° ranks 15
Current wind is above 210° avg. (5.3)
Visibility9999 m
Phenomena:N/A
Clouds:Scattered 150 Hf
Scattered 170 Hf
Expected CloudBase > 1,200 ft AGL from Temp-Dew spread
CeilingNone
Temp25°C (ISA +12)
Dew Point22°C (83% RH)
QNH1015 hPa
Density Alt2,867 ft
Elevation1,158 ft
Report Wrong Elevation
Raw Report
KTBN 220856Z AUTO 21006KT 10SM SCT150 SCT170 25/22 A2998 RMK AO2
SLP142 T02500219 57012=

Extra information for KTBN:More info

Metar Taf Metar & Taf Last 4 Metars F.Rules Stats Wind Profile Meteogram Temp Stats Airport Information Weather charts Add Link Nearby VenuesMetar ALERT Operation Metar Decoded Social comments

AIRNAV info for KTBN